Time;durP1;ratioP1;P1;durP2;ratioP2;P2;SDS_P1;SDS_P2;PMS_P1;PMS_P2;Temp;Humidity;BMP_temperature;BMP_pressure;BME280_temperature;BME280_humidity;BME280_pressure;Samples;Min_cycle;Max_cycle;Signal;HPM_P1;HPM_P2
2023/11/26 00:02:15;;;;;;;5.28;4.15;;;0.10;99.90;;;;;;5053701;28;20631;-64
2023/11/26 00:04:41;;;;;;;6.32;4.07;;;0.00;99.90;;;;;;5053847;28;20206;-63
2023/11/26 00:07:08;;;;;;;7.90;4.20;;;0.00;99.90;;;;;;5053528;28;20288;-61
2023/11/26 00:09:35;;;;;;;4.47;4.07;;;0.00;99.90;;;;;;5053995;28;20205;-60
2023/11/26 00:12:03;;;;;;;5.90;4.38;;;0.10;99.90;;;;;;5053540;28;20205;-62
2023/11/26 00:14:30;;;;;;;5.45;3.88;;;0.10;99.90;;;;;;5053443;28;20226;-61
2023/11/26 00:16:57;;;;;;;6.25;3.72;;;0.10;99.90;;;;;;5053927;28;20217;-63
2023/11/26 00:19:27;;;;;;;7.35;3.60;;;0.10;99.90;;;;;;5053578;28;20209;-66
2023/11/26 00:21:53;;;;;;;6.88;4.03;;;0.10;99.90;;;;;;5053106;28;20206;-62
2023/11/26 00:24:20;;;;;;;6.50;3.95;;;0.10;99.90;;;;;;5054146;28;20221;-63
2023/11/26 00:26:47;;;;;;;7.50;4.03;;;0.10;99.90;;;;;;5053777;28;20682;-62
2023/11/26 00:29:14;;;;;;;7.10;4.45;;;0.10;99.90;;;;;;5057219;28;20206;-63
2023/11/26 00:31:41;;;;;;;6.75;4.00;;;0.10;99.90;;;;;;5059100;28;20581;-62
2023/11/26 00:34:08;;;;;;;6.07;3.40;;;0.10;99.90;;;;;;5058438;28;20691;-63
2023/11/26 00:36:36;;;;;;;6.07;3.92;;;0.10;99.90;;;;;;5058726;28;20647;-61
2023/11/26 00:39:03;;;;;;;7.60;3.97;;;0.10;99.90;;;;;;5058579;28;20693;-63
2023/11/26 00:41:30;;;;;;;4.30;3.00;;;0.10;99.90;;;;;;5057998;28;20202;-63
2023/11/26 00:43:57;;;;;;;4.28;3.97;;;0.10;99.90;;;;;;5057521;28;20225;-62
2023/11/26 00:46:24;;;;;;;6.80;3.90;;;0.10;99.90;;;;;;5057471;28;20209;-61
2023/11/26 00:48:51;;;;;;;4.25;3.67;;;0.10;99.90;;;;;;5057002;28;20205;-61
2023/11/26 00:51:19;;;;;;;6.32;3.80;;;0.10;99.90;;;;;;5057340;28;20583;-63
2023/11/26 00:53:48;;;;;;;4.57;3.40;;;0.10;99.90;;;;;;5057931;28;20225;-63
2023/11/26 00:56:16;;;;;;;4.20;3.72;;;0.00;99.90;;;;;;5057069;28;20210;-62
2023/11/26 00:58:42;;;;;;;7.75;3.33;;;0.00;99.90;;;;;;5056988;28;20222;-63
2023/11/26 01:01:09;;;;;;;5.95;3.55;;;0.00;99.90;;;;;;5057373;28;20263;-63
2023/11/26 01:03:36;;;;;;;4.32;3.50;;;0.00;99.90;;;;;;5057453;28;20233;-62
2023/11/26 01:06:03;;;;;;;9.73;3.85;;;0.00;99.90;;;;;;5057553;28;20671;-62
2023/11/26 01:08:30;;;;;;;8.23;4.13;;;0.00;99.90;;;;;;5057999;28;20205;-62
2023/11/26 01:11:04;;;;;;;4.47;3.45;;;0.00;99.90;;;;;;5058205;28;20296;-61
2023/11/26 01:13:31;;;;;;;4.47;3.75;;;0.00;99.90;;;;;;5058650;28;20221;-62
2023/11/26 01:15:57;;;;;;;4.95;3.88;;;0.00;99.90;;;;;;5059856;28;20205;-62
2023/11/26 01:18:24;;;;;;;4.75;3.90;;;0.00;99.90;;;;;;5058240;28;20324;-62
2023/11/26 01:20:51;;;;;;;6.20;4.43;;;0.10;99.90;;;;;;5057439;28;20206;-62
2023/11/26 01:23:18;;;;;;;3.80;3.50;;;0.10;99.90;;;;;;5057544;28;20590;-62
2023/11/26 01:25:44;;;;;;;5.57;3.95;;;0.00;99.90;;;;;;5057931;28;20197;-62
2023/11/26 01:28:12;;;;;;;5.65;3.92;;;0.00;99.90;;;;;;5057352;28;20280;-62
2023/11/26 01:30:39;;;;;;;6.88;5.07;;;0.00;99.90;;;;;;5059068;28;20213;-63
2023/11/26 01:33:07;;;;;;;6.07;4.00;;;0.00;99.90;;;;;;5060209;28;20241;-62
2023/11/26 01:35:34;;;;;;;6.72;3.85;;;0.00;99.90;;;;;;5059934;28;20746;-62
2023/11/26 01:38:01;;;;;;;5.85;4.35;;;0.00;99.90;;;;;;5056819;28;20581;-63
2023/11/26 01:40:28;;;;;;;6.22;3.75;;;-0.10;99.90;;;;;;5055942;28;20314;-62
2023/11/26 01:42:54;;;;;;;6.15;3.78;;;-0.10;99.90;;;;;;5056994;28;20228;-62
2023/11/26 01:45:22;;;;;;;4.88;4.25;;;-0.10;99.90;;;;;;5057039;28;20206;-61
2023/11/26 01:47:50;;;;;;;5.53;4.15;;;-0.10;99.90;;;;;;5058322;28;20197;-62
2023/11/26 01:50:21;;;;;;;6.80;4.40;;;-0.10;99.90;;;;;;5057497;28;20208;-63
2023/11/26 01:52:49;;;;;;;4.88;4.20;;;-0.10;99.90;;;;;;5057765;28;20300;-63
2023/11/26 01:55:17;;;;;;;4.90;3.65;;;0.00;99.90;;;;;;5058671;28;20690;-61
2023/11/26 01:57:45;;;;;;;4.57;3.83;;;-0.10;99.90;;;;;;5056989;28;20229;-61
2023/11/26 02:00:14;;;;;;;4.63;3.97;;;-0.10;99.90;;;;;;5056746;28;20208;-63
2023/11/26 02:02:43;;;;;;;12.25;4.85;;;-0.10;99.90;;;;;;5056377;28;20276;-62
2023/11/26 02:05:11;;;;;;;8.00;4.20;;;-0.10;99.90;;;;;;5057199;28;20205;-61
2023/11/26 02:07:39;;;;;;;6.25;4.53;;;-0.10;99.90;;;;;;5058803;28;20194;-62
2023/11/26 02:10:07;;;;;;;4.85;4.38;;;-0.10;99.90;;;;;;5060236;28;20204;-62
2023/11/26 02:12:34;;;;;;;4.80;4.30;;;-0.10;99.90;;;;;;5062686;28;20228;-62
2023/11/26 02:15:02;;;;;;;9.07;4.80;;;-0.10;99.90;;;;;;5062265;28;20205;-62
2023/11/26 02:17:28;;;;;;;9.02;4.53;;;-0.10;99.90;;;;;;5062992;28;20228;-63
2023/11/26 02:20:03;;;;;;;5.57;4.65;;;-0.10;99.90;;;;;;5067313;28;20216;-62
2023/11/26 02:22:30;;;;;;;5.97;4.50;;;0.00;99.90;;;;;;5067435;28;20320;-62
2023/11/26 02:24:58;;;;;;;5.25;4.15;;;0.00;99.90;;;;;;5070882;28;20362;-61
2023/11/26 02:27:24;;;;;;;11.07;5.20;;;0.00;99.90;;;;;;5056812;28;20214;-62
2023/11/26 02:29:51;;;;;;;9.10;4.72;;;-0.10;99.90;;;;;;5056760;28;20285;-62
2023/11/26 02:32:18;;;;;;;6.25;4.72;;;-0.10;99.90;;;;;;5056198;28;20581;-62
2023/11/26 02:34:45;;;;;;;5.45;4.43;;;-0.10;99.90;;;;;;5056147;28;20544;-62
2023/11/26 02:37:11;;;;;;;5.40;4.88;;;-0.10;99.90;;;;;;5055426;28;20205;-60
2023/11/26 02:39:38;;;;;;;6.05;5.05;;;-0.10;99.90;;;;;;5056083;28;20201;-62
2023/11/26 02:42:07;;;;;;;4.97;4.15;;;-0.10;99.90;;;;;;5055159;28;20576;-61
2023/11/26 02:44:33;;;;;;;6.57;5.53;;;-0.10;99.90;;;;;;5054826;28;20233;-61
2023/11/26 02:47:01;;;;;;;7.63;4.32;;;-0.10;99.90;;;;;;5054649;28;20202;-62
2023/11/26 02:49:27;;;;;;;6.85;4.90;;;-0.10;99.90;;;;;;5055437;28;20204;-61
2023/11/26 02:51:54;;;;;;;4.30;3.90;;;-0.10;99.90;;;;;;5054376;28;20220;-62
2023/11/26 02:54:21;;;;;;;6.93;4.32;;;-0.10;99.90;;;;;;5056121;28;20229;-62
2023/11/26 02:56:48;;;;;;;7.07;4.47;;;-0.10;99.90;;;;;;5055558;28;20206;-63
2023/11/26 02:59:16;;;;;;;4.45;4.05;;;-0.10;99.90;;;;;;5054559;28;20221;-63
2023/11/26 03:01:44;;;;;;;5.15;4.43;;;-0.10;99.90;;;;;;5055179;28;20221;-62
2023/11/26 03:04:11;;;;;;;9.57;5.50;;;-0.10;99.90;;;;;;5054466;28;20315;-61
2023/11/26 03:06:39;;;;;;;9.93;4.70;;;-0.10;99.90;;;;;;5054150;28;20671;-62
2023/11/26 03:09:29;;;;;;;7.00;4.55;;;-0.10;99.90;;;;;;5054261;28;20202;-62
2023/11/26 03:14:41;;;;;;;6.88;5.18;;;-0.20;99.90;;;;;;5054053;28;20189;-63
2023/11/26 03:17:08;;;;;;;5.75;5.00;;;-0.20;99.90;;;;;;5053945;28;20209;-62
2023/11/26 03:19:35;;;;;;;4.80;4.30;;;-0.20;99.90;;;;;;5053598;28;20214;-62
2023/11/26 03:22:07;;;;;;;6.40;4.65;;;-0.20;99.90;;;;;;5054397;28;20202;-62
2023/11/26 03:24:34;;;;;;;7.10;4.63;;;-0.20;99.90;;;;;;5053882;28;20663;-62
2023/11/26 03:27:02;;;;;;;7.45;5.75;;;-0.30;99.90;;;;;;5053912;28;20205;-63
2023/11/26 03:29:29;;;;;;;8.35;4.63;;;-0.30;99.90;;;;;;5053821;28;20201;-63
2023/11/26 03:31:57;;;;;;;8.55;5.10;;;-0.30;99.90;;;;;;5053675;28;20206;-62
2023/11/26 03:34:28;;;;;;;5.60;5.03;;;-0.30;99.90;;;;;;5053936;28;20715;-63
2023/11/26 03:36:54;;;;;;;4.68;4.00;;;-0.30;99.90;;;;;;5053669;28;20665;-62
2023/11/26 03:39:21;;;;;;;6.30;4.25;;;-0.30;99.90;;;;;;5053262;28;20817;-62
2023/11/26 03:41:49;;;;;;;5.55;4.60;;;-0.30;99.90;;;;;;5053502;28;20268;-62
2023/11/26 03:44:15;;;;;;;4.53;4.07;;;-0.30;99.90;;;;;;5053386;28;20217;-62
2023/11/26 03:46:42;;;;;;;9.35;4.40;;;-0.30;99.90;;;;;;5052987;28;20201;-62
2023/11/26 03:49:10;;;;;;;8.88;5.35;;;-0.30;99.90;;;;;;5053415;28;20216;-62
2023/11/26 03:51:37;;;;;;;10.15;6.10;;;-0.30;99.90;;;;;;5052990;28;20210;-62
2023/11/26 03:54:04;;;;;;;9.15;5.15;;;-0.30;99.90;;;;;;5052939;28;20312;-63
2023/11/26 03:56:31;;;;;;;6.10;4.80;;;-0.30;99.90;;;;;;5053821;28;20201;-63
2023/11/26 03:58:57;;;;;;;5.35;4.82;;;-0.30;99.90;;;;;;5053314;28;20316;-64
2023/11/26 04:01:24;;;;;;;7.53;5.63;;;-0.30;99.90;;;;;;5053984;28;20206;-63
2023/11/26 04:03:51;;;;;;;8.25;4.65;;;-0.30;99.90;;;;;;5052916;28;20233;-62
2023/11/26 04:06:19;;;;;;;6.80;5.53;;;-0.30;99.90;;;;;;5053422;28;20212;-61
2023/11/26 04:08:45;;;;;;;7.97;5.90;;;-0.30;99.90;;;;;;5053517;28;20197;-62
2023/11/26 04:12:37;;;;;;;6.72;5.20;;;-0.30;99.90;;;;;;5091101;28;21063;-64
2023/11/26 04:15:06;;;;;;;8.75;4.97;;;-0.30;99.90;;;;;;5091024;28;20206;-63
2023/11/26 04:17:34;;;;;;;8.20;5.30;;;-0.30;99.90;;;;;;5090803;28;20200;-62
2023/11/26 04:20:01;;;;;;;8.52;5.90;;;-0.30;99.90;;;;;;5090915;28;20235;-62
2023/11/26 04:22:28;;;;;;;8.65;6.03;;;-0.30;99.90;;;;;;5090444;28;20206;-60
2023/11/26 04:24:55;;;;;;;7.40;4.78;;;-0.30;99.90;;;;;;5090552;28;20196;-63
2023/11/26 04:27:22;;;;;;;7.65;5.75;;;-0.30;99.90;;;;;;5091922;28;20220;-63
2023/11/26 04:29:50;;;;;;;6.15;5.55;;;-0.30;99.90;;;;;;5096967;28;20573;-62
2023/11/26 04:32:17;;;;;;;8.55;6.18;;;-0.30;99.90;;;;;;5091983;28;20220;-64
2023/11/26 04:34:44;;;;;;;11.18;6.20;;;-0.20;99.90;;;;;;5090538;28;20207;-63
2023/11/26 04:37:11;;;;;;;9.13;5.93;;;-0.20;99.90;;;;;;5090402;28;20572;-62
2023/11/26 04:39:39;;;;;;;10.45;6.00;;;-0.10;99.90;;;;;;5090354;28;20212;-63
2023/11/26 04:42:06;;;;;;;5.78;5.25;;;-0.10;99.90;;;;;;5090210;28;20287;-63
2023/11/26 04:44:33;;;;;;;7.22;5.70;;;0.00;99.90;;;;;;5090230;28;20565;-62
2023/11/26 04:47:01;;;;;;;6.00;5.35;;;0.00;99.90;;;;;;5090209;28;20223;-62
2023/11/26 04:49:28;;;;;;;10.00;5.80;;;0.10;99.90;;;;;;5091440;28;20208;-62
2023/11/26 04:51:55;;;;;;;8.25;5.68;;;0.10;99.90;;;;;;5091898;28;20224;-62
2023/11/26 04:54:22;;;;;;;8.43;5.70;;;0.10;99.90;;;;;;5091251;28;20220;-63
2023/11/26 04:56:49;;;;;;;8.85;6.10;;;0.10;99.90;;;;;;5091105;28;20205;-63
2023/11/26 04:59:15;;;;;;;9.10;5.97;;;0.10;99.90;;;;;;5090443;28;20212;-61
2023/11/26 05:01:43;;;;;;;8.77;6.45;;;0.10;99.90;;;;;;5090434;28;20205;-63
2023/11/26 05:04:13;;;;;;;8.07;6.60;;;0.10;99.90;;;;;;5090283;28;20638;-62
2023/11/26 05:06:42;;;;;;;6.80;6.07;;;0.10;99.90;;;;;;5090202;28;20201;-63
2023/11/26 05:09:11;;;;;;;6.65;5.88;;;0.20;99.90;;;;;;5090207;28;20273;-63
2023/11/26 05:11:38;;;;;;;5.63;5.13;;;0.20;99.90;;;;;;5090520;28;20266;-62
2023/11/26 05:14:05;;;;;;;7.25;5.30;;;0.20;99.90;;;;;;5091686;28;20727;-62
2023/11/26 05:16:31;;;;;;;11.18;6.38;;;0.20;99.90;;;;;;5090485;28;20200;-62
2023/11/26 05:18:58;;;;;;;7.55;6.25;;;0.20;99.90;;;;;;5089707;28;20763;-62
2023/11/26 05:21:27;;;;;;;7.80;6.90;;;0.20;99.90;;;;;;5091125;28;20200;-63
2023/11/26 05:23:54;;;;;;;8.10;6.15;;;0.10;99.90;;;;;;5077460;28;20217;-62
2023/11/26 05:26:21;;;;;;;10.68;6.53;;;0.10;99.90;;;;;;5076966;28;20197;-62
2023/11/26 05:28:48;;;;;;;10.57;6.30;;;0.10;99.90;;;;;;5077351;28;20209;-62
2023/11/26 05:31:15;;;;;;;8.95;6.55;;;0.10;99.90;;;;;;5076432;28;20308;-62
2023/11/26 05:33:42;;;;;;;7.28;6.03;;;0.00;99.90;;;;;;5076314;28;20225;-62
2023/11/26 05:36:10;;;;;;;8.85;4.97;;;0.00;99.90;;;;;;5076229;28;20575;-62
2023/11/26 05:38:38;;;;;;;8.50;6.55;;;0.00;99.90;;;;;;5076242;28;20212;-61
2023/11/26 05:41:05;;;;;;;9.10;6.53;;;-0.10;99.90;;;;;;5076699;28;20197;-62
2023/11/26 05:43:33;;;;;;;8.85;7.63;;;-0.10;99.90;;;;;;5076484;28;20227;-62
2023/11/26 05:46:00;;;;;;;9.65;6.47;;;0.00;99.90;;;;;;5077291;28;20608;-62
2023/11/26 05:48:27;;;;;;;10.88;7.55;;;0.00;99.90;;;;;;5077361;28;20205;-61
2023/11/26 05:50:53;;;;;;;8.48;5.85;;;0.00;99.90;;;;;;5078365;28;20201;-61
2023/11/26 05:53:20;;;;;;;6.03;5.35;;;0.00;99.90;;;;;;5075691;28;20217;-62
2023/11/26 05:55:48;;;;;;;9.40;7.07;;;0.00;99.90;;;;;;5075764;28;20675;-63
2023/11/26 05:58:15;;;;;;;8.02;6.60;;;0.00;99.90;;;;;;5075991;28;20674;-62
2023/11/26 06:00:41;;;;;;;9.73;6.38;;;0.00;99.90;;;;;;5076125;28;20205;-63
2023/11/26 06:03:08;;;;;;;9.38;6.75;;;0.00;99.90;;;;;;5075679;28;20251;-62
2023/11/26 06:05:35;;;;;;;11.27;7.50;;;0.10;99.90;;;;;;5075447;28;20201;-64
2023/11/26 06:08:03;;;;;;;6.88;6.13;;;0.10;99.90;;;;;;5076288;28;20262;-63
2023/11/26 06:10:30;;;;;;;7.72;6.97;;;0.00;99.90;;;;;;5079094;28;20213;-60
2023/11/26 06:12:58;;;;;;;11.75;6.60;;;0.00;99.90;;;;;;5081589;28;20221;-62
2023/11/26 06:15:25;;;;;;;7.18;6.47;;;0.00;99.90;;;;;;5082161;28;20213;-61
2023/11/26 06:17:51;;;;;;;6.60;5.93;;;-0.10;99.90;;;;;;5082998;28;20207;-63
2023/11/26 06:20:18;;;;;;;12.63;7.88;;;-0.10;99.90;;;;;;5084320;28;20212;-63
2023/11/26 06:22:45;;;;;;;13.10;7.25;;;-0.10;99.90;;;;;;5086247;28;20280;-61
2023/11/26 06:25:12;;;;;;;12.02;7.25;;;-0.10;99.90;;;;;;5084546;28;20205;-61
2023/11/26 06:27:39;;;;;;;7.60;6.78;;;-0.10;99.90;;;;;;5086037;28;20224;-62
2023/11/26 06:30:08;;;;;;;8.60;7.13;;;-0.20;99.90;;;;;;5085723;28;20201;-60
2023/11/26 06:32:36;;;;;;;7.53;6.80;;;-0.20;99.90;;;;;;5074670;28;20639;-61
2023/11/26 06:35:02;;;;;;;11.32;6.63;;;-0.20;99.90;;;;;;5074039;28;20200;-62
2023/11/26 06:37:29;;;;;;;9.48;6.40;;;-0.20;99.90;;;;;;5075225;28;20208;-62
2023/11/26 06:39:56;;;;;;;9.85;6.57;;;-0.20;99.90;;;;;;5075506;28;20211;-62
2023/11/26 06:42:23;;;;;;;8.48;6.70;;;-0.20;99.90;;;;;;5075679;28;20201;-63
2023/11/26 06:44:50;;;;;;;10.52;6.97;;;-0.30;99.90;;;;;;5077201;28;20254;-63
2023/11/26 06:47:18;;;;;;;6.75;6.00;;;-0.30;99.90;;;;;;5079652;28;20228;-63
2023/11/26 06:49:45;;;;;;;8.65;6.72;;;-0.30;99.90;;;;;;5080269;28;20211;-63
2023/11/26 06:52:11;;;;;;;10.40;7.60;;;-0.30;99.90;;;;;;5077533;28;20694;-61
2023/11/26 06:54:38;;;;;;;12.38;7.53;;;-0.30;99.90;;;;;;5080831;28;20212;-62
2023/11/26 06:57:05;;;;;;;11.73;6.18;;;-0.30;99.90;;;;;;5079263;28;20544;-62
2023/11/26 06:59:32;;;;;;;9.75;7.00;;;-0.30;99.90;;;;;;5077718;28;20208;-63
2023/11/26 07:01:59;;;;;;;7.28;6.57;;;-0.40;99.90;;;;;;5076005;28;20208;-62
2023/11/26 07:04:27;;;;;;;12.77;6.70;;;-0.30;99.90;;;;;;5075141;28;20736;-62
2023/11/26 07:06:54;;;;;;;11.23;7.07;;;-0.30;99.90;;;;;;5074585;28;20201;-63
2023/11/26 07:09:22;;;;;;;9.25;7.75;;;-0.30;99.90;;;;;;5074786;28;20689;-63
2023/11/26 07:11:49;;;;;;;8.82;7.40;;;-0.20;99.90;;;;;;5074151;28;20228;-63
2023/11/26 07:14:16;;;;;;;8.35;7.38;;;-0.20;99.90;;;;;;5075259;28;20224;-64
2023/11/26 07:16:42;;;;;;;8.13;6.90;;;-0.10;99.90;;;;;;5075193;28;20212;-62
2023/11/26 07:19:09;;;;;;;11.60;7.28;;;0.00;99.90;;;;;;5073775;28;20593;-62
2023/11/26 07:21:41;;;;;;;7.97;7.18;;;0.10;99.90;;;;;;5074111;28;20193;-62
2023/11/26 07:24:09;;;;;;;13.93;7.60;;;0.20;99.90;;;;;;5073805;28;20710;-62
2023/11/26 07:26:36;;;;;;;8.80;7.45;;;0.20;99.90;;;;;;5073736;28;20204;-62
2023/11/26 07:29:03;;;;;;;10.80;8.32;;;0.30;99.90;;;;;;5075201;28;20574;-62
2023/11/26 07:31:30;;;;;;;9.93;7.63;;;0.30;99.90;;;;;;5074229;28;20710;-62
2023/11/26 07:33:57;;;;;;;12.15;8.68;;;0.40;99.90;;;;;;5074320;28;20303;-63
2023/11/26 07:36:24;;;;;;;12.05;8.30;;;0.50;99.90;;;;;;5074812;28;20574;-61
2023/11/26 07:38:52;;;;;;;13.77;7.07;;;0.50;99.90;;;;;;5074322;28;20252;-61
2023/11/26 07:41:19;;;;;;;7.22;6.63;;;0.60;99.90;;;;;;5073843;28;20201;-63
2023/11/26 07:43:46;;;;;;;7.05;5.97;;;0.70;99.90;;;;;;5074088;28;20225;-62
2023/11/26 07:46:14;;;;;;;10.18;5.97;;;0.80;99.90;;;;;;5073381;28;20224;-60
2023/11/26 07:48:42;;;;;;;9.30;6.72;;;0.90;99.90;;;;;;5073622;28;20196;-62
2023/11/26 07:51:09;;;;;;;7.53;5.85;;;0.90;99.90;;;;;;5073944;28;20245;-61
2023/11/26 07:53:37;;;;;;;8.10;5.65;;;1.00;99.90;;;;;;5073454;28;20274;-62
2023/11/26 07:56:07;;;;;;;9.05;5.82;;;1.10;99.90;;;;;;5073903;28;20248;-62
2023/11/26 07:58:34;;;;;;;5.63;5.13;;;1.10;99.90;;;;;;5074485;28;20220;-62
2023/11/26 08:01:02;;;;;;;7.13;5.05;;;1.20;99.90;;;;;;5074399;28;20201;-61
2023/11/26 08:03:29;;;;;;;6.72;5.00;;;1.30;99.90;;;;;;5074153;28;20328;-62
2023/11/26 08:05:56;;;;;;;8.80;5.00;;;1.40;99.90;;;;;;5073578;28;20555;-61
2023/11/26 08:08:23;;;;;;;7.47;5.18;;;1.40;99.90;;;;;;5073661;28;20201;-62
2023/11/26 08:10:51;;;;;;;13.82;5.40;;;1.40;99.90;;;;;;5073936;28;20228;-61
2023/11/26 08:13:22;;;;;;;6.03;3.70;;;1.40;99.90;;;;;;5073552;28;20232;-62
2023/11/26 08:15:50;;;;;;;5.75;4.20;;;1.50;99.90;;;;;;5073162;28;20664;-61
2023/11/26 08:18:16;;;;;;;8.88;4.45;;;1.50;99.90;;;;;;5073082;28;20697;-62
2023/11/26 08:20:43;;;;;;;4.57;3.80;;;1.60;99.90;;;;;;5074886;28;20205;-60
2023/11/26 08:23:12;;;;;;;7.38;4.38;;;1.60;99.90;;;;;;5073160;28;20213;-62
2023/11/26 08:25:39;;;;;;;5.90;4.38;;;1.70;99.90;;;;;;5073704;28;20233;-62
2023/11/26 08:28:07;;;;;;;4.63;4.13;;;1.70;99.90;;;;;;5072652;28;20201;-62
2023/11/26 08:30:42;;;;;;;5.53;4.40;;;1.70;99.90;;;;;;5072686;28;20575;-62
2023/11/26 08:33:10;;;;;;;6.22;4.60;;;1.80;99.90;;;;;;5072860;28;20313;-62
2023/11/26 08:35:37;;;;;;;6.13;4.47;;;1.80;99.90;;;;;;5072841;28;20201;-61
2023/11/26 08:38:05;;;;;;;6.80;4.45;;;1.80;99.90;;;;;;5072319;28;20205;-60
2023/11/26 08:40:33;;;;;;;8.65;5.43;;;1.90;99.90;;;;;;5072725;28;20246;-61
2023/11/26 08:43:01;;;;;;;8.00;4.60;;;2.00;99.90;;;;;;5072739;28;20299;-61
2023/11/26 08:45:28;;;;;;;5.63;4.60;;;2.00;99.90;;;;;;5073073;28;20204;-62
2023/11/26 08:47:57;;;;;;;6.18;4.95;;;2.10;99.90;;;;;;5072659;28;20201;-62
2023/11/26 08:50:24;;;;;;;7.32;5.20;;;2.20;99.90;;;;;;5073370;28;20663;-61
2023/11/26 08:52:53;;;;;;;8.82;5.32;;;2.20;99.90;;;;;;5074174;28;20225;-61
2023/11/26 08:55:20;;;;;;;8.55;5.50;;;2.30;99.90;;;;;;5074397;28;20201;-62
2023/11/26 08:57:47;;;;;;;6.22;4.70;;;2.30;99.90;;;;;;5076700;28;20274;-62
2023/11/26 09:00:14;;;;;;;6.20;5.60;;;2.40;99.90;;;;;;5079697;28;20209;-63
2023/11/26 09:02:41;;;;;;;8.40;5.95;;;2.50;99.90;;;;;;5079711;28;20267;-63
2023/11/26 09:05:10;;;;;;;10.52;6.90;;;2.60;99.90;;;;;;5081117;28;20197;-63
2023/11/26 09:07:37;;;;;;;9.85;6.38;;;2.60;99.90;;;;;;5081288;28;20201;-62
2023/11/26 09:10:04;;;;;;;8.25;6.32;;;2.70;99.90;;;;;;5080641;28;20211;-61
2023/11/26 09:12:31;;;;;;;7.82;5.40;;;2.70;99.90;;;;;;5079396;28;20228;-63
2023/11/26 09:14:59;;;;;;;12.35;6.20;;;2.80;99.90;;;;;;5079372;28;20201;-62
2023/11/26 09:17:26;;;;;;;10.80;6.50;;;2.90;99.90;;;;;;5078512;28;20686;-61
2023/11/26 09:19:53;;;;;;;10.00;6.07;;;3.00;99.90;;;;;;5078786;28;20212;-62
2023/11/26 09:22:21;;;;;;;7.43;5.80;;;3.00;99.90;;;;;;5077508;28;20257;-63
2023/11/26 09:24:48;;;;;;;9.07;6.78;;;3.10;99.90;;;;;;5076440;28;20205;-62
2023/11/26 09:27:15;;;;;;;10.25;6.75;;;3.00;99.90;;;;;;5076565;28;20205;-63
2023/11/26 09:29:42;;;;;;;10.38;7.15;;;3.10;99.90;;;;;;5076347;28;20288;-62
2023/11/26 09:32:09;;;;;;;8.50;6.65;;;3.10;99.90;;;;;;5076308;28;20247;-62
2023/11/26 09:34:35;;;;;;;10.88;6.22;;;3.20;99.90;;;;;;5076575;28;20235;-62
2023/11/26 09:37:04;;;;;;;9.13;6.68;;;3.20;99.90;;;;;;5077243;28;20213;-62
2023/11/26 09:39:34;;;;;;;8.00;6.45;;;3.30;99.90;;;;;;5077218;28;20211;-62
2023/11/26 09:42:01;;;;;;;7.85;6.65;;;3.40;99.90;;;;;;5077864;28;20205;-63
2023/11/26 09:44:28;;;;;;;8.02;6.40;;;3.40;99.90;;;;;;5077084;28;20236;-62
2023/11/26 09:46:56;;;;;;;9.15;6.20;;;3.50;99.90;;;;;;5076719;28;20693;-63
2023/11/26 09:49:23;;;;;;;10.85;7.60;;;3.60;99.90;;;;;;5077627;28;20593;-63
2023/11/26 09:51:56;;;;;;;14.25;7.03;;;3.70;99.90;;;;;;5079499;28;20201;-62
2023/11/26 09:54:24;;;;;;;13.75;7.03;;;3.80;99.90;;;;;;5079830;28;20217;-63
2023/11/26 09:56:58;;;;;;;8.02;6.22;;;3.90;99.90;;;;;;5079315;28;20205;-64
2023/11/26 09:59:26;;;;;;;12.65;7.55;;;3.90;99.90;;;;;;5077285;28;20650;-61
2023/11/26 10:01:53;;;;;;;6.53;5.80;;;3.90;99.90;;;;;;5076984;28;20197;-61
2023/11/26 10:04:21;;;;;;;7.05;5.68;;;4.00;99.90;;;;;;5077688;28;20221;-63
2023/11/26 10:06:50;;;;;;;6.63;5.68;;;4.00;99.90;;;;;;5077421;28;20202;-62
2023/11/26 10:09:18;;;;;;;6.82;5.40;;;4.00;99.90;;;;;;5077354;28;20205;-61
2023/11/26 10:11:45;;;;;;;7.05;5.90;;;4.00;99.90;;;;;;5077708;28;20212;-62
2023/11/26 10:14:16;;;;;;;6.30;4.85;;;4.00;99.90;;;;;;5077814;28;20589;-63
2023/11/26 10:16:43;;;;;;;6.20;5.07;;;3.90;99.90;;;;;;5079092;28;20273;-63
2023/11/26 10:19:24;;;;;;;8.85;5.57;;;3.90;99.90;;;;;;5077756;28;20735;-61
2023/11/26 10:21:54;;;;;;;8.65;6.20;;;3.80;99.90;;;;;;5078486;28;20266;-63
2023/11/26 10:24:23;;;;;;;10.20;6.70;;;3.80;99.90;;;;;;5083968;28;20232;-61
2023/11/26 10:26:52;;;;;;;12.65;6.38;;;3.70;99.90;;;;;;5082949;28;20204;-60
2023/11/26 10:29:23;;;;;;;7.97;5.03;;;3.70;99.90;;;;;;5078377;28;20284;-62
2023/11/26 10:32:03;;;;;;;5.60;4.57;;;3.60;99.90;;;;;;5076709;28;20185;-63
2023/11/26 10:34:32;;;;;;;8.13;3.95;;;3.60;99.90;;;;;;5075384;28;20263;-62
2023/11/26 10:36:58;;;;;;;7.35;5.00;;;3.60;99.90;;;;;;5076122;28;20201;-62
2023/11/26 10:39:25;;;;;;;4.53;4.10;;;3.70;99.90;;;;;;5076421;28;20549;-63
2023/11/26 10:41:52;;;;;;;4.05;3.60;;;3.70;99.90;;;;;;5076308;28;20207;-63
2023/11/26 10:44:23;;;;;;;4.07;3.60;;;3.80;99.90;;;;;;5076000;28;20274;-62
2023/11/26 10:46:50;;;;;;;4.28;2.58;;;3.90;99.90;;;;;;5075063;28;20197;-62
2023/11/26 10:49:32;;;;;;;3.33;2.95;;;3.90;99.90;;;;;;5075562;28;20211;-62
2023/11/26 10:52:07;;;;;;;3.25;2.53;;;4.00;99.90;;;;;;5075777;28;20192;-62
2023/11/26 10:54:49;;;;;;;3.70;1.90;;;4.00;99.90;;;;;;5075872;28;20232;-63
2023/11/26 10:57:21;;;;;;;3.10;2.33;;;4.10;99.90;;;;;;5074896;28;20190;-63
2023/11/26 10:59:53;;;;;;;3.10;2.50;;;4.10;99.90;;;;;;5075283;28;20557;-62
2023/11/26 11:02:20;;;;;;;3.28;2.40;;;4.20;99.90;;;;;;5076089;28;20186;-62
2023/11/26 11:04:48;;;;;;;2.70;2.50;;;4.20;99.90;;;;;;5076590;28;20197;-62
2023/11/26 11:07:14;;;;;;;3.72;2.85;;;4.20;99.90;;;;;;5074870;28;20201;-65
2023/11/26 11:09:49;;;;;;;3.33;2.70;;;4.20;99.90;;;;;;5075726;28;20205;-59
2023/11/26 11:12:23;;;;;;;2.92;2.67;;;4.30;99.90;;;;;;5076854;28;20674;-62
2023/11/26 11:14:54;;;;;;;3.08;2.75;;;4.30;99.90;;;;;;5076502;28;20254;-62
2023/11/26 11:17:29;;;;;;;3.40;2.90;;;4.40;99.90;;;;;;5075252;28;20185;-63
2023/11/26 11:19:56;;;;;;;4.30;2.88;;;4.40;99.90;;;;;;5074609;28;20204;-63
2023/11/26 11:22:37;;;;;;;4.35;3.80;;;4.30;99.90;;;;;;5075012;28;20200;-63
2023/11/26 11:25:08;;;;;;;3.55;3.22;;;4.30;99.90;;;;;;5074533;28;20265;-62
2023/11/26 11:27:53;;;;;;;5.35;3.85;;;4.30;99.90;;;;;;5074211;28;20357;-62
2023/11/26 11:30:55;;;;;;;3.92;3.63;;;4.30;99.90;;;;;;5074952;28;20197;-62
2023/11/26 11:33:22;;;;;;;4.30;3.90;;;4.30;99.90;;;;;;5073929;28;20220;-62
2023/11/26 11:35:50;;;;;;;5.10;3.63;;;4.30;99.90;;;;;;5073638;28;20669;-62
2023/11/26 11:38:17;;;;;;;4.63;3.72;;;4.40;99.90;;;;;;5073495;28;20201;-62
2023/11/26 11:41:00;;;;;;;5.28;4.57;;;4.40;99.90;;;;;;5074725;28;20205;-62
2023/11/26 11:43:28;;;;;;;4.35;3.95;;;4.40;99.90;;;;;;5074174;28;20216;-62
2023/11/26 11:45:56;;;;;;;6.53;4.85;;;4.40;99.90;;;;;;5073954;28;20205;-62
2023/11/26 11:48:57;;;;;;;5.93;4.63;;;4.40;99.90;;;;;;5074337;28;20203;-60
2023/11/26 11:51:38;;;;;;;6.32;4.90;;;4.30;99.90;;;;;;5073800;28;20208;-61
2023/11/26 11:54:46;;;;;;;7.75;5.22;;;4.30;99.90;;;;;;5074700;28;20224;-62
2023/11/26 11:57:15;;;;;;;6.07;4.90;;;4.30;99.90;;;;;;5052527;28;20208;-62
2023/11/26 11:59:43;;;;;;;4.95;4.35;;;4.30;99.90;;;;;;5074153;28;20301;-62
2023/11/26 12:02:12;;;;;;;5.88;4.40;;;4.30;99.90;;;;;;5074041;28;20207;-62
2023/11/26 12:04:44;;;;;;;5.20;3.75;;;4.30;99.90;;;;;;5073966;28;20547;-63
2023/11/26 12:07:11;;;;;;;6.40;4.63;;;4.30;99.90;;;;;;5074470;28;20188;-64
2023/11/26 12:09:39;;;;;;;6.75;4.68;;;4.30;99.90;;;;;;5075055;28;20201;-63
2023/11/26 12:12:07;;;;;;;5.25;4.72;;;4.40;99.90;;;;;;5074031;28;20312;-62
2023/11/26 12:14:34;;;;;;;7.47;5.10;;;4.40;99.90;;;;;;5073896;28;20728;-63
2023/11/26 12:17:06;;;;;;;7.45;5.70;;;4.50;99.90;;;;;;5074836;28;20204;-63
2023/11/26 12:19:37;;;;;;;5.68;4.95;;;4.60;99.90;;;;;;5075154;28;20186;-63
2023/11/26 12:22:05;;;;;;;5.45;4.50;;;4.60;99.90;;;;;;5075296;28;20185;-62
2023/11/26 12:24:33;;;;;;;5.97;4.72;;;4.60;99.90;;;;;;5075321;28;20220;-62
2023/11/26 12:27:00;;;;;;;13.60;5.90;;;4.60;99.90;;;;;;5074560;28;20208;-63
2023/11/26 12:29:27;;;;;;;8.40;6.80;;;4.60;99.90;;;;;;5075009;28;20228;-62
2023/11/26 12:31:56;;;;;;;10.73;8.30;;;4.70;99.90;;;;;;5074505;28;20204;-62
2023/11/26 12:34:23;;;;;;;16.50;8.57;;;4.60;99.90;;;;;;5077959;28;20224;-62
2023/11/26 12:36:52;;;;;;;8.70;7.10;;;4.60;99.90;;;;;;5078297;28;20304;-62
2023/11/26 12:39:19;;;;;;;10.80;7.50;;;4.70;99.90;;;;;;5077719;28;20216;-62
2023/11/26 12:41:47;;;;;;;10.40;7.35;;;4.60;99.90;;;;;;5077150;28;20205;-61
2023/11/26 12:44:14;;;;;;;14.07;8.75;;;4.70;99.90;;;;;;5077703;28;20217;-61
2023/11/26 12:46:42;;;;;;;15.25;9.32;;;4.70;99.90;;;;;;5077696;28;20273;-62
2023/11/26 12:49:15;;;;;;;12.15;8.75;;;4.70;99.90;;;;;;5077858;28;20254;-62
2023/11/26 12:51:43;;;;;;;10.25;6.90;;;4.70;99.90;;;;;;5078446;28;20205;-63
2023/11/26 12:54:11;;;;;;;14.63;10.55;;;4.70;99.90;;;;;;5078606;28;20231;-63
2023/11/26 12:56:39;;;;;;;12.73;9.32;;;4.80;99.90;;;;;;5080702;28;20292;-62
2023/11/26 12:59:06;;;;;;;13.43;10.70;;;4.80;99.90;;;;;;5081249;28;20212;-63
2023/11/26 13:01:35;;;;;;;15.23;9.63;;;4.90;99.90;;;;;;5083537;28;20567;-63
2023/11/26 13:04:03;;;;;;;15.85;10.50;;;4.90;99.90;;;;;;5082586;28;20625;-62